Time;durP1;ratioP1;P1;durP2;ratioP2;P2;SDS_P1;SDS_P2;PMS_P1;PMS_P2;Temp;Humidity;BMP_temperature;BMP_pressure;BME280_temperature;BME280_humidity;BME280_pressure;Samples;Min_cycle;Max_cycle;Signal;HPM_P1;HPM_P2
2020/04/28 00:00:49;;;;;;;4.1;3.7;;;;;;;8.78;61.28613;94305.2;;;;
2020/04/28 00:07:05;;;;;;;4.699999;4.1;;;;;;;8.64;61.75781;94303.94;;;;
2020/04/28 00:08:05;;;;;;;4.699999;4.1;;;;;;;8.64;61.75781;94303.94;;;;
2020/04/28 00:09:06;;;;;;;4.699999;4.1;;;;;;;8.64;61.75781;94303.94;;;;
2020/04/28 00:10:19;;;;;;;4.699999;4.1;;;;;;;8.64;61.75781;94303.94;;;;
2020/04/28 00:11:19;;;;;;;4.699999;4.1;;;;;;;8.64;61.75781;94303.94;;;;
2020/04/28 00:12:20;;;;;;;4.699999;4.1;;;;;;;8.64;61.75781;94303.94;;;;
2020/04/28 00:13:20;;;;;;;4.699999;4.1;;;;;;;8.64;61.75781;94303.94;;;;
2020/04/28 00:14:21;;;;;;;4.699999;4.1;;;;;;;8.64;61.75781;94303.94;;;;
2020/04/28 00:15:21;;;;;;;4.699999;4.1;;;;;;;8.64;61.75781;94303.94;;;;
2020/04/28 00:16:22;;;;;;;4.149999;3.75;;;;;;;8.59;62.29688;94294.05;;;;
2020/04/28 00:17:22;;;;;;;4.149999;3.75;;;;;;;8.59;62.29688;94294.05;;;;
2020/04/28 00:18:23;;;;;;;4.149999;3.75;;;;;;;8.59;62.29688;94294.05;;;;
2020/04/28 00:19:23;;;;;;;4.149999;3.75;;;;;;;8.59;62.29688;94294.05;;;;
2020/04/28 00:20:24;;;;;;;4.149999;3.75;;;;;;;8.59;62.29688;94294.05;;;;
2020/04/28 00:21:24;;;;;;;4.149999;3.75;;;;;;;8.59;62.29688;94294.05;;;;
2020/04/28 00:22:25;;;;;;;4.149999;3.75;;;;;;;8.59;62.29688;94294.05;;;;
2020/04/28 00:23:25;;;;;;;4.149999;3.75;;;;;;;8.59;62.29688;94294.05;;;;
2020/04/28 00:24:26;;;;;;;4.149999;3.75;;;;;;;8.59;62.29688;94294.05;;;;
2020/04/28 00:25:26;;;;;;;4.149999;3.75;;;;;;;8.59;62.29688;94294.05;;;;
2020/04/28 00:26:26;;;;;;;3.5;3.2;;;;;;;8.66;62.64941;94283.91;;;;
2020/04/28 00:27:27;;;;;;;3.5;3.2;;;;;;;8.66;62.64941;94283.91;;;;
2020/04/28 00:28:28;;;;;;;3.5;3.2;;;;;;;8.66;62.64941;94283.91;;;;
2020/04/28 00:29:28;;;;;;;3.5;3.2;;;;;;;8.66;62.64941;94283.91;;;;
2020/04/28 00:30:29;;;;;;;3.5;3.2;;;;;;;8.66;62.64941;94283.91;;;;
2020/04/28 00:31:29;;;;;;;3.5;3.2;;;;;;;8.66;62.64941;94283.91;;;;
2020/04/28 00:32:30;;;;;;;3.5;3.2;;;;;;;8.66;62.64941;94283.91;;;;
2020/04/28 00:33:30;;;;;;;3.5;3.2;;;;;;;8.66;62.64941;94283.91;;;;
2020/04/28 00:34:31;;;;;;;3.5;3.2;;;;;;;8.66;62.64941;94283.91;;;;
2020/04/28 00:35:31;;;;;;;3.5;3.2;;;;;;;8.66;62.64941;94283.91;;;;
2020/04/28 00:36:32;;;;;;;3.5;3.2;;;;;;;8.66;62.64941;94283.91;;;;
2020/04/28 00:37:32;;;;;;;3.85;3.4;;;;;;;8.87;62.74316;94287.16;;;;
2020/04/28 00:38:32;;;;;;;3.85;3.4;;;;;;;8.87;62.74316;94287.16;;;;
2020/04/28 00:39:33;;;;;;;3.85;3.4;;;;;;;8.87;62.74316;94287.16;;;;
2020/04/28 00:40:35;;;;;;;3.85;3.4;;;;;;;8.87;62.74316;94287.16;;;;
2020/04/28 00:41:38;;;;;;;3.85;3.4;;;;;;;8.87;62.74316;94287.16;;;;
2020/04/28 00:42:41;;;;;;;3.85;3.4;;;;;;;8.87;62.74316;94287.16;;;;
2020/04/28 00:43:42;;;;;;;3.85;3.4;;;;;;;8.87;62.74316;94287.16;;;;
2020/04/28 00:44:45;;;;;;;3.85;3.4;;;;;;;8.87;62.74316;94287.16;;;;
2020/04/28 00:45:48;;;;;;;3.85;3.4;;;;;;;8.87;62.74316;94287.16;;;;
2020/04/28 00:46:54;;;;;;;3.85;3.4;;;;;;;8.87;62.74316;94287.16;;;;
2020/04/28 00:48:00;;;;;;;4.75;3.4;;;;;;;8.95;63.09668;94288.08;;;;
2020/04/28 00:49:01;;;;;;;4.75;3.4;;;;;;;8.95;63.09668;94288.08;;;;
2020/04/28 00:50:02;;;;;;;4.75;3.4;;;;;;;8.95;63.09668;94288.08;;;;
2020/04/28 00:51:03;;;;;;;4.75;3.4;;;;;;;8.95;63.09668;94288.08;;;;
2020/04/28 00:52:04;;;;;;;4.75;3.4;;;;;;;8.95;63.09668;94288.08;;;;
2020/04/28 00:53:05;;;;;;;4.75;3.4;;;;;;;8.95;63.09668;94288.08;;;;
2020/04/28 00:54:06;;;;;;;4.75;3.4;;;;;;;8.95;63.09668;94288.08;;;;
2020/04/28 00:55:06;;;;;;;4.75;3.4;;;;;;;8.95;63.09668;94288.08;;;;
2020/04/28 00:56:07;;;;;;;4.75;3.4;;;;;;;8.95;63.09668;94288.08;;;;
2020/04/28 00:57:07;;;;;;;4.75;3.4;;;;;;;8.95;63.09668;94288.08;;;;
2020/04/28 00:58:08;;;;;;;4.2;3.4;;;;;;;9.07;63.04883;94278.13;;;;
2020/04/28 00:59:08;;;;;;;4.2;3.4;;;;;;;9.07;63.04883;94278.13;;;;
2020/04/28 01:00:17;;;;;;;4.2;3.4;;;;;;;9.07;63.04883;94278.13;;;;
2020/04/28 01:02:24;;;;;;;4.2;3.4;;;;;;;9.07;63.04883;94278.13;;;;
2020/04/28 01:03:25;;;;;;;4.2;3.4;;;;;;;9.07;63.04883;94278.13;;;;
2020/04/28 01:04:28;;;;;;;4.2;3.4;;;;;;;9.07;63.04883;94278.13;;;;
2020/04/28 01:05:28;;;;;;;4.2;3.4;;;;;;;9.07;63.04883;94278.13;;;;
2020/04/28 01:06:29;;;;;;;4.2;3.4;;;;;;;9.07;63.04883;94278.13;;;;
2020/04/28 01:07:29;;;;;;;4.2;3.4;;;;;;;9.07;63.04883;94278.13;;;;
2020/04/28 01:08:30;;;;;;;4.2;3.4;;;;;;;9.07;63.04883;94278.13;;;;
2020/04/28 01:09:31;;;;;;;3.900001;3.35;;;;;;;9.03;63.54785;94284.14;;;;
2020/04/28 01:10:31;;;;;;;3.900001;3.35;;;;;;;9.03;63.54785;94284.14;;;;
2020/04/28 01:11:32;;;;;;;3.900001;3.35;;;;;;;9.03;63.54785;94284.14;;;;
2020/04/28 01:12:32;;;;;;;3.900001;3.35;;;;;;;9.03;63.54785;94284.14;;;;
2020/04/28 01:13:33;;;;;;;3.900001;3.35;;;;;;;9.03;63.54785;94284.14;;;;
2020/04/28 01:14:33;;;;;;;3.900001;3.35;;;;;;;9.03;63.54785;94284.14;;;;
2020/04/28 01:15:34;;;;;;;3.900001;3.35;;;;;;;9.03;63.54785;94284.14;;;;
2020/04/28 01:16:34;;;;;;;3.900001;3.35;;;;;;;9.03;63.54785;94284.14;;;;
2020/04/28 01:17:35;;;;;;;3.900001;3.35;;;;;;;9.03;63.54785;94284.14;;;;
2020/04/28 01:18:35;;;;;;;3.900001;3.35;;;;;;;9.03;63.54785;94284.14;;;;
2020/04/28 01:19:35;;;;;;;6.700001;3.7;;;;;;;9.04;63.59082;94270.95;;;;
2020/04/28 01:20:36;;;;;;;6.700001;3.7;;;;;;;9.04;63.59082;94270.95;;;;
2020/04/28 01:21:36;;;;;;;6.700001;3.7;;;;;;;9.04;63.59082;94270.95;;;;
2020/04/28 01:22:38;;;;;;;6.700001;3.7;;;;;;;9.04;63.59082;94270.95;;;;
2020/04/28 01:23:39;;;;;;;6.700001;3.7;;;;;;;9.04;63.59082;94270.95;;;;
2020/04/28 01:24:40;;;;;;;6.700001;3.7;;;;;;;9.04;63.59082;94270.95;;;;
2020/04/28 01:25:40;;;;;;;6.700001;3.7;;;;;;;9.04;63.59082;94270.95;;;;
2020/04/28 01:26:41;;;;;;;6.700001;3.7;;;;;;;9.04;63.59082;94270.95;;;;
2020/04/28 01:27:41;;;;;;;6.700001;3.7;;;;;;;9.04;63.59082;94270.95;;;;
2020/04/28 01:28:42;;;;;;;6.700001;3.7;;;;;;;9.04;63.59082;94270.95;;;;
2020/04/28 01:29:42;;;;;;;6.700001;3.7;;;;;;;9.04;63.59082;94270.95;;;;
2020/04/28 01:30:43;;;;;;;4.199999;3.8;;;;;;;8.89;63.97559;94280.05;;;;
2020/04/28 01:31:43;;;;;;;4.199999;3.8;;;;;;;8.89;63.97559;94280.05;;;;
2020/04/28 01:32:43;;;;;;;4.199999;3.8;;;;;;;8.89;63.97559;94280.05;;;;
2020/04/28 01:33:44;;;;;;;4.199999;3.8;;;;;;;8.89;63.97559;94280.05;;;;
2020/04/28 01:34:44;;;;;;;4.199999;3.8;;;;;;;8.89;63.97559;94280.05;;;;
2020/04/28 01:35:45;;;;;;;4.199999;3.8;;;;;;;8.89;63.97559;94280.05;;;;
2020/04/28 01:36:45;;;;;;;4.199999;3.8;;;;;;;8.89;63.97559;94280.05;;;;
2020/04/28 01:37:46;;;;;;;4.199999;3.8;;;;;;;8.89;63.97559;94280.05;;;;
2020/04/28 01:38:46;;;;;;;4.199999;3.8;;;;;;;8.89;63.97559;94280.05;;;;
2020/04/28 01:39:47;;;;;;;4.199999;3.8;;;;;;;8.89;63.97559;94280.05;;;;
2020/04/28 01:40:47;;;;;;;4.349999;3.95;;;;;;;8.83;64.35156;94277.56;;;;
2020/04/28 01:41:47;;;;;;;4.349999;3.95;;;;;;;8.83;64.35156;94277.56;;;;
2020/04/28 01:42:48;;;;;;;4.349999;3.95;;;;;;;8.83;64.35156;94277.56;;;;
2020/04/28 01:43:48;;;;;;;4.349999;3.95;;;;;;;8.83;64.35156;94277.56;;;;
2020/04/28 01:44:49;;;;;;;4.349999;3.95;;;;;;;8.83;64.35156;94277.56;;;;
2020/04/28 01:45:49;;;;;;;4.349999;3.95;;;;;;;8.83;64.35156;94277.56;;;;
2020/04/28 01:46:50;;;;;;;4.349999;3.95;;;;;;;8.83;64.35156;94277.56;;;;
2020/04/28 01:47:50;;;;;;;4.349999;3.95;;;;;;;8.83;64.35156;94277.56;;;;
2020/04/28 01:48:51;;;;;;;4.349999;3.95;;;;;;;8.83;64.35156;94277.56;;;;
2020/04/28 01:49:51;;;;;;;4.349999;3.95;;;;;;;8.83;64.35156;94277.56;;;;
2020/04/28 01:50:52;;;;;;;4.349999;3.95;;;;;;;8.83;64.35156;94277.56;;;;
2020/04/28 01:51:52;;;;;;;4.3;3.900001;;;;;;;8.69;64.65039;94273.99;;;;
2020/04/28 01:52:52;;;;;;;4.3;3.900001;;;;;;;8.69;64.65039;94273.99;;;;
2020/04/28 01:53:53;;;;;;;4.3;3.900001;;;;;;;8.69;64.65039;94273.99;;;;
2020/04/28 01:54:53;;;;;;;4.3;3.900001;;;;;;;8.69;64.65039;94273.99;;;;
2020/04/28 01:55:54;;;;;;;4.3;3.900001;;;;;;;8.69;64.65039;94273.99;;;;
2020/04/28 01:56:54;;;;;;;4.3;3.900001;;;;;;;8.69;64.65039;94273.99;;;;
2020/04/28 01:57:55;;;;;;;4.3;3.900001;;;;;;;8.69;64.65039;94273.99;;;;
2020/04/28 01:58:55;;;;;;;4.3;3.900001;;;;;;;8.69;64.65039;94273.99;;;;
2020/04/28 01:59:56;;;;;;;4.3;3.900001;;;;;;;8.69;64.65039;94273.99;;;;
2020/04/28 02:01:58;;;;;;;4.3;3.900001;;;;;;;8.69;64.65039;94273.99;;;;
2020/04/28 02:02:58;;;;;;;4.15;3.75;;;;;;;8.57;65.00781;94275.98;;;;
2020/04/28 02:03:59;;;;;;;4.15;3.75;;;;;;;8.57;65.00781;94275.98;;;;
2020/04/28 02:04:59;;;;;;;4.15;3.75;;;;;;;8.57;65.00781;94275.98;;;;
2020/04/28 02:06:00;;;;;;;4.15;3.75;;;;;;;8.57;65.00781;94275.98;;;;
2020/04/28 02:07:01;;;;;;;4.15;3.75;;;;;;;8.57;65.00781;94275.98;;;;
2020/04/28 02:08:01;;;;;;;4.15;3.75;;;;;;;8.57;65.00781;94275.98;;;;
2020/04/28 02:09:02;;;;;;;4.15;3.75;;;;;;;8.57;65.00781;94275.98;;;;
2020/04/28 02:10:02;;;;;;;4.15;3.75;;;;;;;8.57;65.00781;94275.98;;;;
2020/04/28 02:11:03;;;;;;;4.15;3.75;;;;;;;8.57;65.00781;94275.98;;;;
2020/04/28 02:12:04;;;;;;;4.15;3.75;;;;;;;8.57;65.00781;94275.98;;;;
2020/04/28 02:13:04;;;;;;;4.4;4;;;;;;;8.43;65.47754;94275.65;;;;
2020/04/28 02:14:05;;;;;;;4.4;4;;;;;;;8.43;65.47754;94275.65;;;;
2020/04/28 02:15:05;;;;;;;4.4;4;;;;;;;8.43;65.47754;94275.65;;;;
2020/04/28 02:16:06;;;;;;;4.4;4;;;;;;;8.43;65.47754;94275.65;;;;
2020/04/28 02:17:07;;;;;;;4.4;4;;;;;;;8.43;65.47754;94275.65;;;;
2020/04/28 02:18:07;;;;;;;4.4;4;;;;;;;8.43;65.47754;94275.65;;;;
2020/04/28 02:19:08;;;;;;;4.4;4;;;;;;;8.43;65.47754;94275.65;;;;
2020/04/28 02:20:08;;;;;;;4.4;4;;;;;;;8.43;65.47754;94275.65;;;;
2020/04/28 02:21:09;;;;;;;4.4;4;;;;;;;8.43;65.47754;94275.65;;;;
2020/04/28 02:22:09;;;;;;;4.4;4;;;;;;;8.43;65.47754;94275.65;;;;
2020/04/28 02:23:10;;;;;;;4.4;3.95;;;;;;;8.4;66.02832;94270.62;;;;
2020/04/28 02:24:10;;;;;;;4.4;3.95;;;;;;;8.4;66.02832;94270.62;;;;
2020/04/28 02:25:11;;;;;;;4.4;3.95;;;;;;;8.4;66.02832;94270.62;;;;
2020/04/28 02:26:11;;;;;;;4.4;3.95;;;;;;;8.4;66.02832;94270.62;;;;
2020/04/28 02:27:12;;;;;;;4.4;3.95;;;;;;;8.4;66.02832;94270.62;;;;
2020/04/28 02:28:12;;;;;;;4.4;3.95;;;;;;;8.4;66.02832;94270.62;;;;
2020/04/28 02:29:12;;;;;;;4.4;3.95;;;;;;;8.4;66.02832;94270.62;;;;
2020/04/28 02:35:31;;;;;;;5.8;4.1;;;;;;;8.3;66.29004;94270.61;;;;
2020/04/28 02:36:36;;;;;;;5.8;4.1;;;;;;;8.3;66.29004;94270.61;;;;
2020/04/28 02:37:45;;;;;;;5.8;4.1;;;;;;;8.3;66.29004;94270.61;;;;
2020/04/28 02:38:51;;;;;;;5.8;4.1;;;;;;;8.3;66.29004;94270.61;;;;
2020/04/28 02:39:52;;;;;;;5.8;4.1;;;;;;;8.3;66.29004;94270.61;;;;
2020/04/28 02:40:52;;;;;;;5.8;4.1;;;;;;;8.3;66.29004;94270.61;;;;
2020/04/28 02:41:53;;;;;;;5.8;4.1;;;;;;;8.3;66.29004;94270.61;;;;
2020/04/28 02:42:53;;;;;;;5.8;4.1;;;;;;;8.3;66.29004;94270.61;;;;
2020/04/28 02:43:53;;;;;;;5.8;4.1;;;;;;;8.3;66.29004;94270.61;;;;
2020/04/28 02:44:54;;;;;;;4.699999;4.3;;;;;;;8.34;66.59473;94270.4;;;;
2020/04/28 02:45:55;;;;;;;4.699999;4.3;;;;;;;8.34;66.59473;94270.4;;;;
2020/04/28 02:46:55;;;;;;;4.699999;4.3;;;;;;;8.34;66.59473;94270.4;;;;
2020/04/28 02:47:56;;;;;;;4.699999;4.3;;;;;;;8.34;66.59473;94270.4;;;;
2020/04/28 02:48:56;;;;;;;4.699999;4.3;;;;;;;8.34;66.59473;94270.4;;;;
2020/04/28 02:49:57;;;;;;;4.699999;4.3;;;;;;;8.34;66.59473;94270.4;;;;
2020/04/28 02:50:57;;;;;;;4.699999;4.3;;;;;;;8.34;66.59473;94270.4;;;;
2020/04/28 02:51:57;;;;;;;4.699999;4.3;;;;;;;8.34;66.59473;94270.4;;;;
2020/04/28 02:52:58;;;;;;;4.699999;4.3;;;;;;;8.34;66.59473;94270.4;;;;
2020/04/28 02:53:58;;;;;;;4.699999;4.3;;;;;;;8.34;66.59473;94270.4;;;;
2020/04/28 02:54:59;;;;;;;4.35;3.95;;;;;;;8.32;66.82617;94271.59;;;;
2020/04/28 02:55:59;;;;;;;4.35;3.95;;;;;;;8.32;66.82617;94271.59;;;;
2020/04/28 02:57:00;;;;;;;4.35;3.95;;;;;;;8.32;66.82617;94271.59;;;;
2020/04/28 02:58:00;;;;;;;4.35;3.95;;;;;;;8.32;66.82617;94271.59;;;;
2020/04/28 02:59:01;;;;;;;4.35;3.95;;;;;;;8.32;66.82617;94271.59;;;;
2020/04/28 03:00:01;;;;;;;4.35;3.95;;;;;;;8.32;66.82617;94271.59;;;;
2020/04/28 03:01:10;;;;;;;4.35;3.95;;;;;;;8.32;66.82617;94271.59;;;;
2020/04/28 03:02:11;;;;;;;4.35;3.95;;;;;;;8.32;66.82617;94271.59;;;;
2020/04/28 03:03:11;;;;;;;4.35;3.95;;;;;;;8.32;66.82617;94271.59;;;;
2020/04/28 03:04:12;;;;;;;4.35;3.95;;;;;;;8.32;66.82617;94271.59;;;;
2020/04/28 03:05:12;;;;;;;4.6;4.2;;;;;;;8.35;67.16113;94270.67;;;;
2020/04/28 03:06:12;;;;;;;4.6;4.2;;;;;;;8.35;67.16113;94270.67;;;;
2020/04/28 03:07:13;;;;;;;4.6;4.2;;;;;;;8.35;67.16113;94270.67;;;;
2020/04/28 03:08:13;;;;;;;4.6;4.2;;;;;;;8.35;67.16113;94270.67;;;;
2020/04/28 03:09:14;;;;;;;4.6;4.2;;;;;;;8.35;67.16113;94270.67;;;;
2020/04/28 03:10:18;;;;;;;4.6;4.2;;;;;;;8.35;67.16113;94270.67;;;;
2020/04/28 03:11:18;;;;;;;4.6;4.2;;;;;;;8.35;67.16113;94270.67;;;;
2020/04/28 03:12:19;;;;;;;4.6;4.2;;;;;;;8.35;67.16113;94270.67;;;;
2020/04/28 03:13:20;;;;;;;4.6;4.2;;;;;;;8.35;67.16113;94270.67;;;;
2020/04/28 03:14:20;;;;;;;4.6;4.2;;;;;;;8.35;67.16113;94270.67;;;;
2020/04/28 03:15:21;;;;;;;4.6;4.2;;;;;;;8.35;67.16113;94270.67;;;;
2020/04/28 03:16:21;;;;;;;4.5;4.099999;;;;;;;8.27;67.80078;94260.77;;;;
2020/04/28 03:17:22;;;;;;;4.5;4.099999;;;;;;;8.27;67.80078;94260.77;;;;
2020/04/28 03:18:22;;;;;;;4.5;4.099999;;;;;;;8.27;67.80078;94260.77;;;;
2020/04/28 03:19:23;;;;;;;4.5;4.099999;;;;;;;8.27;67.80078;94260.77;;;;
2020/04/28 03:20:23;;;;;;;4.5;4.099999;;;;;;;8.27;67.80078;94260.77;;;;
2020/04/28 03:21:23;;;;;;;4.5;4.099999;;;;;;;8.27;67.80078;94260.77;;;;
2020/04/28 03:22:24;;;;;;;4.5;4.099999;;;;;;;8.27;67.80078;94260.77;;;;
2020/04/28 03:23:24;;;;;;;4.5;4.099999;;;;;;;8.27;67.80078;94260.77;;;;
2020/04/28 03:24:25;;;;;;;4.5;4.099999;;;;;;;8.27;67.80078;94260.77;;;;
2020/04/28 03:25:25;;;;;;;4.5;4.099999;;;;;;;8.27;67.80078;94260.77;;;;
2020/04/28 03:26:26;;;;;;;4.699999;4;;;;;;;8.35;67.9082;94252.67;;;;
2020/04/28 03:27:26;;;;;;;4.699999;4;;;;;;;8.35;67.9082;94252.67;;;;
2020/04/28 03:28:27;;;;;;;4.699999;4;;;;;;;8.35;67.9082;94252.67;;;;
2020/04/28 03:29:27;;;;;;;4.699999;4;;;;;;;8.35;67.9082;94252.67;;;;
2020/04/28 03:30:27;;;;;;;4.699999;4;;;;;;;8.35;67.9082;94252.67;;;;
2020/04/28 03:31:28;;;;;;;4.699999;4;;;;;;;8.35;67.9082;94252.67;;;;
2020/04/28 03:32:28;;;;;;;4.699999;4;;;;;;;8.35;67.9082;94252.67;;;;
2020/04/28 03:33:29;;;;;;;4.699999;4;;;;;;;8.35;67.9082;94252.67;;;;
2020/04/28 03:34:29;;;;;;;4.699999;4;;;;;;;8.35;67.9082;94252.67;;;;
2020/04/28 03:35:30;;;;;;;4.699999;4;;;;;;;8.35;67.9082;94252.67;;;;
2020/04/28 03:36:30;;;;;;;4.699999;4;;;;;;;8.35;67.9082;94252.67;;;;
2020/04/28 03:37:31;;;;;;;4.4;4;;;;;;;8.32;68.23438;94253.69;;;;
2020/04/28 03:38:31;;;;;;;4.4;4;;;;;;;8.32;68.23438;94253.69;;;;
2020/04/28 03:39:33;;;;;;;4.4;4;;;;;;;8.32;68.23438;94253.69;;;;
2020/04/28 03:40:33;;;;;;;4.4;4;;;;;;;8.32;68.23438;94253.69;;;;
2020/04/28 03:41:34;;;;;;;4.4;4;;;;;;;8.32;68.23438;94253.69;;;;
2020/04/28 03:42:34;;;;;;;4.4;4;;;;;;;8.32;68.23438;94253.69;;;;
2020/04/28 03:43:35;;;;;;;4.4;4;;;;;;;8.32;68.23438;94253.69;;;;
2020/04/28 03:44:36;;;;;;;4.4;4;;;;;;;8.32;68.23438;94253.69;;;;
2020/04/28 03:45:36;;;;;;;4.4;4;;;;;;;8.32;68.23438;94253.69;;;;
2020/04/28 03:46:37;;;;;;;4.4;4;;;;;;;8.32;68.23438;94253.69;;;;
2020/04/28 03:47:37;;;;;;;4.699999;3.95;;;;;;;8.34;68.35449;94259.65;;;;
2020/04/28 03:48:38;;;;;;;4.699999;3.95;;;;;;;8.34;68.35449;94259.65;;;;
2020/04/28 03:49:38;;;;;;;4.699999;3.95;;;;;;;8.34;68.35449;94259.65;;;;
2020/04/28 03:50:39;;;;;;;4.699999;3.95;;;;;;;8.34;68.35449;94259.65;;;;
2020/04/28 03:51:39;;;;;;;4.699999;3.95;;;;;;;8.34;68.35449;94259.65;;;;
2020/04/28 03:52:40;;;;;;;4.699999;3.95;;;;;;;8.34;68.35449;94259.65;;;;
2020/04/28 03:53:40;;;;;;;4.699999;3.95;;;;;;;8.34;68.35449;94259.65;;;;
2020/04/28 03:54:41;;;;;;;4.699999;3.95;;;;;;;8.34;68.35449;94259.65;;;;
2020/04/28 03:55:41;;;;;;;4.699999;3.95;;;;;;;8.34;68.35449;94259.65;;;;
2020/04/28 03:56:42;;;;;;;4.699999;3.95;;;;;;;8.34;68.35449;94259.65;;;;
2020/04/28 03:57:42;;;;;;;4.699999;3.95;;;;;;;8.34;68.35449;94259.65;;;;
2020/04/28 03:58:42;;;;;;;4.65;4.15;;;;;;;8.24;68.64941;94262.06;;;;
2020/04/28 03:59:43;;;;;;;4.65;4.15;;;;;;;8.24;68.64941;94262.06;;;;
2020/04/28 04:00:44;;;;;;;4.65;4.15;;;;;;;8.24;68.64941;94262.06;;;;
2020/04/28 04:01:44;;;;;;;4.65;4.15;;;;;;;8.24;68.64941;94262.06;;;;
2020/04/28 04:02:44;;;;;;;4.65;4.15;;;;;;;8.24;68.64941;94262.06;;;;
2020/04/28 04:03:45;;;;;;;4.65;4.15;;;;;;;8.24;68.64941;94262.06;;;;
2020/04/28 04:04:45;;;;;;;4.65;4.15;;;;;;;8.24;68.64941;94262.06;;;;
2020/04/28 04:05:46;;;;;;;4.65;4.15;;;;;;;8.24;68.64941;94262.06;;;;
2020/04/28 04:06:46;;;;;;;4.65;4.15;;;;;;;8.24;68.64941;94262.06;;;;
2020/04/28 04:07:47;;;;;;;4.65;4.15;;;;;;;8.24;68.64941;94262.06;;;;
2020/04/28 04:08:47;;;;;;;4.75;4.1;;;;;;;8.31;68.88379;94262.29;;;;
2020/04/28 04:09:48;;;;;;;4.75;4.1;;;;;;;8.31;68.88379;94262.29;;;;
2020/04/28 04:10:49;;;;;;;4.75;4.1;;;;;;;8.31;68.88379;94262.29;;;;
2020/04/28 04:11:49;;;;;;;4.75;4.1;;;;;;;8.31;68.88379;94262.29;;;;
2020/04/28 04:12:50;;;;;;;4.75;4.1;;;;;;;8.31;68.88379;94262.29;;;;
2020/04/28 04:13:50;;;;;;;4.75;4.1;;;;;;;8.31;68.88379;94262.29;;;;
2020/04/28 04:14:51;;;;;;;4.75;4.1;;;;;;;8.31;68.88379;94262.29;;;;
2020/04/28 04:15:51;;;;;;;4.75;4.1;;;;;;;8.31;68.88379;94262.29;;;;
2020/04/28 04:16:52;;;;;;;4.75;4.1;;;;;;;8.31;68.88379;94262.29;;;;
2020/04/28 04:17:52;;;;;;;4.75;4.1;;;;;;;8.31;68.88379;94262.29;;;;
2020/04/28 04:18:53;;;;;;;4.75;4.1;;;;;;;8.31;68.88379;94262.29;;;;
2020/04/28 04:19:53;;;;;;;4.2;3.8;;;;;;;8.39;69.11035;94260.53;;;;
2020/04/28 04:20:54;;;;;;;4.2;3.8;;;;;;;8.39;69.11035;94260.53;;;;
2020/04/28 04:21:54;;;;;;;4.2;3.8;;;;;;;8.39;69.11035;94260.53;;;;
2020/04/28 04:22:55;;;;;;;4.2;3.8;;;;;;;8.39;69.11035;94260.53;;;;
2020/04/28 04:23:55;;;;;;;4.2;3.8;;;;;;;8.39;69.11035;94260.53;;;;
2020/04/28 04:24:56;;;;;;;4.2;3.8;;;;;;;8.39;69.11035;94260.53;;;;
2020/04/28 04:25:56;;;;;;;4.2;3.8;;;;;;;8.39;69.11035;94260.53;;;;
2020/04/28 04:26:57;;;;;;;4.2;3.8;;;;;;;8.39;69.11035;94260.53;;;;
2020/04/28 04:27:57;;;;;;;4.2;3.8;;;;;;;8.39;69.11035;94260.53;;;;
2020/04/28 04:28:58;;;;;;;4.2;3.8;;;;;;;8.39;69.11035;94260.53;;;;
2020/04/28 04:29:58;;;;;;;4.2;3.8;;;;;;;8.68;68.95215;94269.27;;;;
2020/04/28 04:30:59;;;;;;;4.2;3.8;;;;;;;8.68;68.95215;94269.27;;;;
2020/04/28 04:31:59;;;;;;;4.2;3.8;;;;;;;8.68;68.95215;94269.27;;;;
2020/04/28 04:33:00;;;;;;;4.2;3.8;;;;;;;8.68;68.95215;94269.27;;;;
2020/04/28 04:34:00;;;;;;;4.2;3.8;;;;;;;8.68;68.95215;94269.27;;;;
2020/04/28 04:35:01;;;;;;;4.2;3.8;;;;;;;8.68;68.95215;94269.27;;;;
2020/04/28 04:36:01;;;;;;;4.2;3.8;;;;;;;8.68;68.95215;94269.27;;;;
2020/04/28 04:37:02;;;;;;;4.2;3.8;;;;;;;8.68;68.95215;94269.27;;;;
2020/04/28 04:38:03;;;;;;;4.2;3.8;;;;;;;8.68;68.95215;94269.27;;;;
2020/04/28 04:39:04;;;;;;;4.2;3.8;;;;;;;8.68;68.95215;94269.27;;;;
2020/04/28 04:40:05;;;;;;;4.2;3.8;;;;;;;8.68;68.95215;94269.27;;;;
2020/04/28 04:41:05;;;;;;;5.349999;3.95;;;;;;;8.93;68.79004;94272.29;;;;
2020/04/28 04:42:06;;;;;;;5.349999;3.95;;;;;;;8.93;68.79004;94272.29;;;;
2020/04/28 04:43:06;;;;;;;5.349999;3.95;;;;;;;8.93;68.79004;94272.29;;;;
2020/04/28 04:44:07;;;;;;;5.349999;3.95;;;;;;;8.93;68.79004;94272.29;;;;
2020/04/28 04:45:07;;;;;;;5.349999;3.95;;;;;;;8.93;68.79004;94272.29;;;;
2020/04/28 04:46:08;;;;;;;5.349999;3.95;;;;;;;8.93;68.79004;94272.29;;;;
2020/04/28 04:47:08;;;;;;;5.349999;3.95;;;;;;;8.93;68.79004;94272.29;;;;
2020/04/28 04:48:09;;;;;;;5.349999;3.95;;;;;;;8.93;68.79004;94272.29;;;;
2020/04/28 04:49:09;;;;;;;5.349999;3.95;;;;;;;8.93;68.79004;94272.29;;;;
2020/04/28 04:50:10;;;;;;;5.349999;3.95;;;;;;;8.93;68.79004;94272.29;;;;
2020/04/28 04:51:10;;;;;;;3.85;3.5;;;;;;;9.34;68.42676;94273.57;;;;
2020/04/28 04:52:11;;;;;;;3.85;3.5;;;;;;;9.34;68.42676;94273.57;;;;
2020/04/28 04:53:11;;;;;;;3.85;3.5;;;;;;;9.34;68.42676;94273.57;;;;
2020/04/28 04:54:12;;;;;;;3.85;3.5;;;;;;;9.34;68.42676;94273.57;;;;
2020/04/28 04:55:12;;;;;;;3.85;3.5;;;;;;;9.34;68.42676;94273.57;;;;
2020/04/28 04:56:12;;;;;;;3.85;3.5;;;;;;;9.34;68.42676;94273.57;;;;
2020/04/28 04:57:13;;;;;;;3.85;3.5;;;;;;;9.34;68.42676;94273.57;;;;
2020/04/28 04:58:14;;;;;;;3.85;3.5;;;;;;;9.34;68.42676;94273.57;;;;
2020/04/28 04:59:14;;;;;;;3.85;3.5;;;;;;;9.34;68.42676;94273.57;;;;
2020/04/28 05:05:27;;;;;;;6.6;3.85;;;;;;;9.88;67.82715;94271.98;;;;
2020/04/28 05:06:27;;;;;;;6.6;3.85;;;;;;;9.88;67.82715;94271.98;;;;
2020/04/28 05:07:28;;;;;;;6.6;3.85;;;;;;;9.88;67.82715;94271.98;;;;
2020/04/28 05:08:28;;;;;;;6.6;3.85;;;;;;;9.88;67.82715;94271.98;;;;
2020/04/28 05:09:29;;;;;;;6.6;3.85;;;;;;;9.88;67.82715;94271.98;;;;
2020/04/28 05:10:29;;;;;;;6.6;3.85;;;;;;;9.88;67.82715;94271.98;;;;
2020/04/28 05:11:29;;;;;;;6.6;3.85;;;;;;;9.88;67.82715;94271.98;;;;
2020/04/28 05:12:30;;;;;;;3.9;3.55;;;;;;;10.92;66.57227;94275.86;;;;
2020/04/28 05:13:30;;;;;;;3.9;3.55;;;;;;;10.92;66.57227;94275.86;;;;
2020/04/28 05:14:31;;;;;;;3.9;3.55;;;;;;;10.92;66.57227;94275.86;;;;
2020/04/28 05:15:31;;;;;;;3.9;3.55;;;;;;;10.92;66.57227;94275.86;;;;
2020/04/28 05:16:32;;;;;;;3.9;3.55;;;;;;;10.92;66.57227;94275.86;;;;
2020/04/28 05:17:32;;;;;;;3.9;3.55;;;;;;;10.92;66.57227;94275.86;;;;
2020/04/28 05:18:33;;;;;;;3.9;3.55;;;;;;;10.92;66.57227;94275.86;;;;
2020/04/28 05:19:33;;;;;;;3.9;3.55;;;;;;;10.92;66.57227;94275.86;;;;
2020/04/28 05:20:33;;;;;;;3.9;3.55;;;;;;;10.92;66.57227;94275.86;;;;
2020/04/28 05:21:34;;;;;;;3.9;3.55;;;;;;;10.92;66.57227;94275.86;;;;
2020/04/28 05:22:34;;;;;;;3.9;3.55;;;;;;;10.92;66.57227;94275.86;;;;
2020/04/28 05:23:35;;;;;;;4.45;3.65;;;;;;;11.75;65.75195;94262.52;;;;
2020/04/28 05:24:36;;;;;;;4.45;3.65;;;;;;;11.75;65.75195;94262.52;;;;
2020/04/28 05:25:36;;;;;;;4.45;3.65;;;;;;;11.75;65.75195;94262.52;;;;
2020/04/28 05:26:36;;;;;;;4.45;3.65;;;;;;;11.75;65.75195;94262.52;;;;
2020/04/28 05:27:37;;;;;;;4.45;3.65;;;;;;;11.75;65.75195;94262.52;;;;
2020/04/28 05:28:38;;;;;;;4.45;3.65;;;;;;;11.75;65.75195;94262.52;;;;
2020/04/28 05:29:38;;;;;;;4.45;3.65;;;;;;;11.75;65.75195;94262.52;;;;
2020/04/28 05:30:39;;;;;;;4.45;3.65;;;;;;;11.75;65.75195;94262.52;;;;
2020/04/28 05:31:39;;;;;;;4.45;3.65;;;;;;;11.75;65.75195;94262.52;;;;
2020/04/28 05:32:40;;;;;;;4.45;3.65;;;;;;;11.75;65.75195;94262.52;;;;
2020/04/28 05:33:40;;;;;;;4;3.6;;;;;;;12.37;65.27441;94270.42;;;;
2020/04/28 05:34:41;;;;;;;4;3.6;;;;;;;12.37;65.27441;94270.42;;;;
2020/04/28 05:35:41;;;;;;;4;3.6;;;;;;;12.37;65.27441;94270.42;;;;
2020/04/28 05:36:42;;;;;;;4;3.6;;;;;;;12.37;65.27441;94270.42;;;;
2020/04/28 05:37:42;;;;;;;4;3.6;;;;;;;12.37;65.27441;94270.42;;;;
2020/04/28 05:38:43;;;;;;;4;3.6;;;;;;;12.37;65.27441;94270.42;;;;
2020/04/28 05:39:43;;;;;;;4;3.6;;;;;;;12.37;65.27441;94270.42;;;;
2020/04/28 05:40:43;;;;;;;4;3.6;;;;;;;12.37;65.27441;94270.42;;;;
2020/04/28 05:41:44;;;;;;;4;3.6;;;;;;;12.37;65.27441;94270.42;;;;
2020/04/28 05:42:44;;;;;;;4;3.6;;;;;;;12.37;65.27441;94270.42;;;;
2020/04/28 05:43:45;;;;;;;4;3.6;;;;;;;12.37;65.27441;94270.42;;;;
2020/04/28 05:44:45;;;;;;;4.45;3.55;;;;;;;12.92;64.71973;94268.16;;;;
2020/04/28 05:45:46;;;;;;;4.45;3.55;;;;;;;12.92;64.71973;94268.16;;;;
2020/04/28 05:46:46;;;;;;;4.45;3.55;;;;;;;12.92;64.71973;94268.16;;;;
2020/04/28 05:47:47;;;;;;;4.45;3.55;;;;;;;12.92;64.71973;94268.16;;;;
2020/04/28 05:48:47;;;;;;;4.45;3.55;;;;;;;12.92;64.71973;94268.16;;;;
2020/04/28 05:49:48;;;;;;;4.45;3.55;;;;;;;12.92;64.71973;94268.16;;;;
2020/04/28 05:50:48;;;;;;;4.45;3.55;;;;;;;12.92;64.71973;94268.16;;;;
2020/04/28 05:51:48;;;;;;;4.45;3.55;;;;;;;12.92;64.71973;94268.16;;;;
2020/04/28 05:52:49;;;;;;;4.45;3.55;;;;;;;12.92;64.71973;94268.16;;;;
2020/04/28 05:53:57;;;;;;;4.45;3.55;;;;;;;12.92;64.71973;94268.16;;;;
2020/04/28 05:54:57;;;;;;;4;3.6;;;;;;;13.62;63.90332;94267.5;;;;
2020/04/28 05:56:12;;;;;;;4;3.6;;;;;;;13.62;63.90332;94267.5;;;;
2020/04/28 05:57:17;;;;;;;4;3.6;;;;;;;13.62;63.90332;94267.5;;;;
2020/04/28 05:58:17;;;;;;;4;3.6;;;;;;;13.62;63.90332;94267.5;;;;
2020/04/28 05:59:21;;;;;;;4;3.6;;;;;;;13.62;63.90332;94267.5;;;;
2020/04/28 06:05:39;;;;;;;3.9;3.5;;;;;;;14.37;63.00781;94267.03;;;;
2020/04/28 06:06:40;;;;;;;3.9;3.5;;;;;;;14.37;63.00781;94267.03;;;;
2020/04/28 06:07:40;;;;;;;3.9;3.5;;;;;;;14.37;63.00781;94267.03;;;;
2020/04/28 06:08:41;;;;;;;3.9;3.5;;;;;;;14.37;63.00781;94267.03;;;;
2020/04/28 06:09:41;;;;;;;3.9;3.5;;;;;;;14.37;63.00781;94267.03;;;;
2020/04/28 06:10:42;;;;;;;3.9;3.5;;;;;;;14.37;63.00781;94267.03;;;;